Terminal Aerodrome Forecast
Issued by NWS

Home | Current Version | Previous Version | Text Only | Print | Product List | Glossary On
Versions: 1 2 3 4 5 6 7 8 9 10 11 12 13 14 15 16 17 18 19 20 21 22 23 24 25
000
FTUS41 KBUF 060541
TAFIAG
TAF
KIAG 060541Z 0606/0706 00000KT P6SM OVC045
      TEMPO 0606/0610 2SM BR BKN110
     FM061000 08004KT 2SM BR BKN080
     FM061200 08005KT P6SM BKN080
     FM061600 09006KT P6SM BKN200
     FM070100 VRB03KT P6SM SCT250=

USA.gov is the U.S. government's official web portal to all federal, state and local government web resources and services.